createdAt,value
2023-03-12T00:00:51.853Z,-0.34
2023-03-12T00:03:18.276Z,-0.24
2023-03-12T00:05:45.390Z,-0.24
2023-03-12T00:08:12.921Z,-0.20
2023-03-12T00:10:40.355Z,-0.15
2023-03-12T00:13:07.095Z,-0.10
2023-03-12T00:15:36.718Z,-0.05
2023-03-12T00:18:03.072Z,-0.07
2023-03-12T00:20:29.355Z,-0.12
2023-03-12T00:22:55.672Z,-0.06
2023-03-12T00:25:22.130Z,-0.11
2023-03-12T00:27:48.750Z,-0.04
2023-03-12T00:30:15.279Z,-0.14
2023-03-12T00:32:41.626Z,-0.13
2023-03-12T00:35:08.411Z,-0.16
2023-03-12T00:37:36.972Z,-0.25
2023-03-12T00:40:05.697Z,-0.34
2023-03-12T00:42:32.645Z,-0.44
2023-03-12T00:44:58.966Z,-0.38
2023-03-12T00:47:25.328Z,-0.44
2023-03-12T00:49:51.796Z,-0.48
2023-03-12T00:52:18.215Z,-0.52
2023-03-12T00:54:44.598Z,-0.39
2023-03-12T00:57:10.979Z,-0.39
2023-03-12T00:59:40.264Z,-0.31
2023-03-12T01:02:08.158Z,-0.22
2023-03-12T01:04:34.616Z,-0.16
2023-03-12T01:07:07.480Z,-0.09
2023-03-12T01:09:33.856Z,-0.07
2023-03-12T01:12:00.180Z,-0.01
2023-03-12T01:14:26.689Z,0.02
2023-03-12T01:16:53.120Z,0.03
2023-03-12T01:19:19.509Z,0.04
2023-03-12T01:21:45.803Z,0.14
2023-03-12T01:24:12.136Z,0.09
2023-03-12T01:26:38.460Z,0.13
2023-03-12T01:29:04.759Z,0.06
2023-03-12T01:31:31.166Z,0.10
2023-03-12T01:33:57.739Z,0.03
2023-03-12T01:36:26.573Z,0.08
2023-03-12T01:38:55.149Z,0.02
2023-03-12T01:41:23.566Z,0.06
2023-03-12T01:43:50.824Z,0.05
2023-03-12T01:46:38.936Z,0.10
2023-03-12T01:49:14.058Z,0.05
2023-03-12T01:51:50.080Z,0.02
2023-03-12T01:54:30.249Z,-0.03
2023-03-12T01:56:56.957Z,0.02
2023-03-12T01:59:29.370Z,-0.05
2023-03-12T02:01:55.773Z,0.01
2023-03-12T02:04:25.469Z,0.03
2023-03-12T02:07:03.847Z,0.05
2023-03-12T02:09:33.466Z,0.09
2023-03-12T02:12:00.167Z,0.12
2023-03-12T02:14:26.575Z,0.19
2023-03-12T02:16:54.250Z,0.20
2023-03-12T02:19:35.564Z,0.27
2023-03-12T02:22:01.872Z,0.26
2023-03-12T02:24:35.447Z,0.31
2023-03-12T02:27:02.863Z,0.26
2023-03-12T02:29:30.677Z,0.32
2023-03-12T02:32:00.412Z,0.34
2023-03-12T02:34:26.828Z,0.35
2023-03-12T02:36:53.192Z,0.33
2023-03-12T02:39:19.642Z,0.39
2023-03-12T02:41:53.722Z,0.38
2023-03-12T02:44:26.844Z,0.36
2023-03-12T02:46:55.770Z,0.37
2023-03-12T02:49:24.525Z,0.40
2023-03-12T02:51:51.219Z,0.39
2023-03-12T02:54:19.275Z,0.41
2023-03-12T02:56:46.288Z,0.44
2023-03-12T02:59:14.255Z,0.50
2023-03-12T03:01:41.321Z,0.45
2023-03-12T03:04:10.111Z,0.48
2023-03-12T03:06:39.399Z,0.45
2023-03-12T03:09:05.757Z,0.49
2023-03-12T03:11:32.312Z,0.47
2023-03-12T03:13:58.698Z,0.41
2023-03-12T03:16:25.113Z,0.46
2023-03-12T03:18:51.901Z,0.51
2023-03-12T03:21:18.505Z,0.54
2023-03-12T03:23:46.892Z,0.57
2023-03-12T03:26:14.800Z,0.62
2023-03-12T03:31:08.177Z,0.70
2023-03-12T03:33:36.416Z,0.68
2023-03-12T03:36:03.612Z,0.70
2023-03-12T03:38:31.867Z,0.67
2023-03-12T03:40:58.372Z,0.70
2023-03-12T03:43:25.195Z,0.71
2023-03-12T03:46:03.006Z,0.72
2023-03-12T03:48:29.883Z,0.78
2023-03-12T03:51:00.675Z,0.72
2023-03-12T03:53:26.980Z,0.74
2023-03-12T03:55:53.275Z,0.66
2023-03-12T03:58:19.571Z,0.56
2023-03-12T04:00:46.568Z,0.70
2023-03-12T04:03:13.867Z,0.67
2023-03-12T04:05:40.525Z,0.73
2023-03-12T04:08:07.425Z,0.73
2023-03-12T04:10:33.735Z,0.74
2023-03-12T04:13:00.101Z,0.76
2023-03-12T04:15:26.546Z,0.77
2023-03-12T04:17:52.850Z,0.79
2023-03-12T04:20:19.394Z,0.81
2023-03-12T04:22:45.702Z,0.77
2023-03-12T04:25:12.070Z,0.77
2023-03-12T04:27:38.415Z,0.83
2023-03-12T04:30:05.145Z,0.85
2023-03-12T04:32:31.587Z,0.91
2023-03-12T04:34:57.937Z,0.94
2023-03-12T04:37:24.307Z,0.96
2023-03-12T04:39:50.645Z,0.98
2023-03-12T04:42:16.969Z,0.91
2023-03-12T04:44:43.349Z,1.02
2023-03-12T04:47:09.651Z,1.06
2023-03-12T04:49:38.426Z,1.02
2023-03-12T04:52:05.022Z,0.95
2023-03-12T04:54:31.875Z,0.86
2023-03-12T04:56:58.201Z,0.85
2023-03-12T04:59:24.676Z,0.90
2023-03-12T05:01:51.691Z,0.81
2023-03-12T05:04:18.196Z,0.82
2023-03-12T05:06:44.549Z,0.79
2023-03-12T05:09:10.888Z,0.80
2023-03-12T05:11:39.595Z,0.87
2023-03-12T05:14:06.244Z,0.88
2023-03-12T05:16:32.696Z,0.98
2023-03-12T05:18:59.034Z,1.08
2023-03-12T05:21:25.365Z,1.11
2023-03-12T05:23:51.772Z,1.17
2023-03-12T05:26:20.376Z,1.19
2023-03-12T05:28:47.145Z,1.16
2023-03-12T05:31:14.356Z,1.24
2023-03-12T05:33:40.930Z,1.26
2023-03-12T05:36:08.116Z,1.15
2023-03-12T05:38:34.767Z,1.30
2023-03-12T05:41:01.152Z,1.28
2023-03-12T05:43:28.360Z,1.33
2023-03-12T05:45:58.464Z,1.36
2023-03-12T05:48:24.855Z,1.29
2023-03-12T05:50:51.152Z,1.29
2023-03-12T05:53:17.506Z,1.37
2023-03-12T05:55:43.868Z,1.32
2023-03-12T05:58:10.229Z,1.39
2023-03-12T06:00:38.071Z,1.42
2023-03-12T06:03:05.651Z,1.48
2023-03-12T06:05:34.267Z,1.49
2023-03-12T06:08:01.279Z,1.55
2023-03-12T06:10:28.248Z,1.58
2023-03-12T06:12:54.864Z,1.58
2023-03-12T06:15:21.464Z,1.57
2023-03-12T06:17:47.803Z,1.59
2023-03-12T06:20:14.269Z,1.69
2023-03-12T06:22:40.634Z,1.75
2023-03-12T06:25:07.290Z,1.92
2023-03-12T06:27:33.660Z,1.96
2023-03-12T06:29:59.981Z,2.02
2023-03-12T06:32:26.377Z,2.05
2023-03-12T06:34:52.738Z,2.04
2023-03-12T06:37:19.040Z,2.07
2023-03-12T06:39:45.346Z,2.11
2023-03-12T06:42:13.026Z,2.15
2023-03-12T06:44:39.316Z,2.13
2023-03-12T06:47:05.834Z,2.13
2023-03-12T06:49:33.273Z,2.06
2023-03-12T06:51:59.646Z,2.04
2023-03-12T06:54:26.072Z,2.07
2023-03-12T06:56:53.060Z,2.10
2023-03-12T06:59:21.581Z,2.05
2023-03-12T07:01:48.837Z,2.05
2023-03-12T07:04:15.168Z,2.10
2023-03-12T07:06:42.095Z,2.18
2023-03-12T07:09:08.490Z,2.20
2023-03-12T07:11:35.336Z,2.32
2023-03-12T07:14:01.818Z,2.31
2023-03-12T07:16:28.344Z,2.50
2023-03-12T07:18:55.332Z,2.59
2023-03-12T07:21:23.637Z,2.55
2023-03-12T07:23:50.621Z,2.71
2023-03-12T07:26:17.238Z,2.64
2023-03-12T07:28:43.576Z,2.67
2023-03-12T07:31:10.017Z,2.63
2023-03-12T07:33:36.488Z,2.63
2023-03-12T07:36:03.798Z,2.69
2023-03-12T07:38:30.348Z,2.68
2023-03-12T07:40:58.112Z,2.69
2023-03-12T07:43:25.114Z,2.67
2023-03-12T07:45:51.954Z,2.69
2023-03-12T07:48:21.705Z,2.61
2023-03-12T07:50:48.725Z,2.59
2023-03-12T07:53:15.175Z,2.64
2023-03-12T07:55:45.091Z,2.64
2023-03-12T07:58:12.972Z,2.62
2023-03-12T08:00:39.917Z,2.58
2023-03-12T08:03:06.467Z,2.58
2023-03-12T08:05:33.037Z,2.58
2023-03-12T08:07:59.409Z,2.51
2023-03-12T08:10:25.883Z,2.50
2023-03-12T08:12:52.316Z,2.53
2023-03-12T08:15:18.766Z,2.60
2023-03-12T08:17:45.359Z,2.62
2023-03-12T08:20:12.435Z,2.65
2023-03-12T08:22:39.811Z,2.70
2023-03-12T08:25:07.214Z,2.73
2023-03-12T08:27:33.920Z,2.81
2023-03-12T08:30:00.363Z,2.88
2023-03-12T08:32:26.982Z,2.86
2023-03-12T08:34:53.381Z,2.88
2023-03-12T08:37:19.692Z,2.82
2023-03-12T08:39:46.018Z,2.90
2023-03-12T08:42:12.345Z,2.84
2023-03-12T08:44:38.676Z,2.83
2023-03-12T08:47:05.082Z,2.83
2023-03-12T08:49:31.531Z,2.89
2023-03-12T08:51:57.877Z,2.92
2023-03-12T08:54:24.168Z,2.93
2023-03-12T08:56:52.218Z,2.96
2023-03-12T08:59:20.556Z,2.99
2023-03-12T09:01:47.632Z,3.07
2023-03-12T09:04:13.998Z,3.01
2023-03-12T09:06:41.064Z,3.14
2023-03-12T09:09:08.941Z,3.10
2023-03-12T09:11:39.565Z,3.23
2023-03-12T09:14:49.958Z,3.32
2023-03-12T09:16:52.247Z,3.39
2023-03-12T09:19:18.638Z,3.35
2023-03-12T09:21:45.005Z,3.36
2023-03-12T09:24:11.933Z,3.50
2023-03-12T09:26:38.231Z,3.45
2023-03-12T09:29:04.644Z,3.47
2023-03-12T09:31:31.143Z,3.48
2023-03-12T09:33:57.449Z,3.55
2023-03-12T09:36:23.738Z,3.51
2023-03-12T09:38:50.240Z,3.55
2023-03-12T09:41:28.829Z,3.48
2023-03-12T09:44:04.181Z,3.57
2023-03-12T09:46:39.128Z,3.66
2023-03-12T09:49:14.494Z,3.76
2023-03-12T09:51:54.009Z,3.88
2023-03-12T09:54:31.543Z,3.85
2023-03-12T09:57:03.362Z,3.93
2023-03-12T09:59:30.009Z,4.07
2023-03-12T10:02:00.133Z,4.17
2023-03-12T10:04:58.032Z,4.20
2023-03-12T10:07:50.331Z,4.23
2023-03-12T10:10:32.043Z,4.36
2023-03-12T10:13:17.857Z,4.42
2023-03-12T10:16:09.282Z,4.47
2023-03-12T10:18:46.247Z,4.55
2023-03-12T10:22:00.352Z,4.64
2023-03-12T10:24:35.533Z,4.72
2023-03-12T10:27:04.112Z,4.76
2023-03-12T10:29:35.431Z,4.93
2023-03-12T10:32:16.432Z,5.00
2023-03-12T10:34:51.840Z,5.06
2023-03-12T10:37:26.070Z,5.10
2023-03-12T10:39:55.350Z,5.09
2023-03-12T10:42:24.561Z,5.14
2023-03-12T10:45:35.836Z,5.19
2023-03-12T10:48:07.012Z,5.18
2023-03-12T10:50:36.136Z,5.04
2023-03-12T10:53:22.777Z,5.12
2023-03-12T10:56:10.995Z,5.18
2023-03-12T10:58:45.932Z,5.32
2023-03-12T11:01:15.413Z,5.38
2023-03-12T11:03:45.944Z,5.45
2023-03-12T11:06:25.740Z,5.53
2023-03-12T11:09:17.763Z,5.53
2023-03-12T11:11:49.145Z,5.66
2023-03-12T11:14:21.645Z,5.79
2023-03-12T11:16:55.828Z,5.87
2023-03-12T11:19:33.898Z,5.95
2023-03-12T11:22:03.366Z,6.11
2023-03-12T11:24:30.484Z,6.11
2023-03-12T11:27:05.247Z,6.16
2023-03-12T11:29:40.407Z,6.25
2023-03-12T11:32:16.036Z,6.34
2023-03-12T11:34:42.952Z,6.46
2023-03-12T11:37:40.607Z,6.49
2023-03-12T11:40:36.694Z,6.43
2023-03-12T11:43:43.311Z,6.37
2023-03-12T11:46:20.654Z,6.65
2023-03-12T11:49:09.463Z,6.78
2023-03-12T11:51:59.899Z,6.76
2023-03-12T11:54:41.424Z,6.85
2023-03-12T11:57:21.859Z,6.85
2023-03-12T12:00:00.402Z,7.09
2023-03-12T12:02:57.248Z,7.14
2023-03-12T12:05:38.681Z,7.20
2023-03-12T12:08:26.288Z,7.36
2023-03-12T12:10:59.543Z,7.47
2023-03-12T12:13:37.894Z,7.56
2023-03-12T12:16:13.356Z,7.72
2023-03-12T12:18:51.311Z,7.90
2023-03-12T12:21:26.417Z,8.13
2023-03-12T12:24:26.129Z,8.33
2023-03-12T12:27:03.145Z,8.33
2023-03-12T12:29:51.370Z,8.50
2023-03-12T12:32:27.475Z,8.61
2023-03-12T12:35:22.947Z,8.56
2023-03-12T12:38:03.113Z,8.49
2023-03-12T12:40:37.352Z,8.43
2023-03-12T12:43:15.240Z,8.75
2023-03-12T12:45:42.427Z,9.02
2023-03-12T12:48:20.550Z,9.00
2023-03-12T12:50:49.687Z,8.90
2023-03-12T12:53:57.650Z,8.86
2023-03-12T12:56:38.914Z,8.85
2023-03-12T12:59:25.170Z,8.78
2023-03-12T13:01:55.706Z,8.89
2023-03-12T13:04:30.512Z,8.92
2023-03-12T13:07:19.646Z,9.03
2023-03-12T13:09:50.392Z,9.08
2023-03-12T13:12:21.830Z,9.15
2023-03-12T13:14:49.692Z,9.29
2023-03-12T13:17:28.396Z,9.39
2023-03-12T13:20:01.942Z,9.37
2023-03-12T13:22:49.713Z,9.53
2023-03-12T13:25:31.372Z,9.62
2023-03-12T13:28:22.330Z,9.76
2023-03-12T13:30:50.926Z,9.88
2023-03-12T13:33:21.658Z,10.09
2023-03-12T13:36:23.764Z,10.29
2023-03-12T13:38:55.590Z,10.43
2023-03-12T13:41:35.747Z,10.64
2023-03-12T13:44:27.199Z,10.74
2023-03-12T13:47:00.909Z,10.75
2023-03-12T13:49:49.143Z,10.68
2023-03-12T13:52:18.912Z,10.68
2023-03-12T13:54:49.271Z,10.62
2023-03-12T13:57:40.206Z,10.70
2023-03-12T14:00:36.172Z,10.81
2023-03-12T14:03:15.769Z,10.98
2023-03-12T14:06:05.399Z,11.23
2023-03-12T14:08:56.222Z,11.47
2023-03-12T14:11:40.933Z,11.58
2023-03-12T14:14:32.508Z,11.55
2023-03-12T14:17:01.915Z,11.53
2023-03-12T14:19:30.421Z,11.48
2023-03-12T14:22:01.239Z,11.45
2023-03-12T14:24:35.251Z,11.42
2023-03-12T14:27:04.595Z,11.31
2023-03-12T14:29:30.921Z,11.43
2023-03-12T14:32:02.491Z,11.45
2023-03-12T14:34:35.038Z,11.53
2023-03-12T14:37:14.644Z,11.53
2023-03-12T14:39:50.805Z,11.56
2023-03-12T14:42:28.867Z,11.58
2023-03-12T14:45:12.492Z,11.61
2023-03-12T14:47:44.352Z,11.60
2023-03-12T14:50:21.353Z,11.67
2023-03-12T14:52:48.125Z,11.72
2023-03-12T14:55:17.933Z,11.80
2023-03-12T14:57:45.385Z,11.86
2023-03-12T15:00:29.793Z,12.03
2023-03-12T15:03:00.053Z,12.23
2023-03-12T15:05:26.774Z,12.41
2023-03-12T15:07:56.571Z,12.53
2023-03-12T15:10:28.428Z,12.58
2023-03-12T15:13:00.220Z,12.66
2023-03-12T15:15:42.270Z,12.70
2023-03-12T15:18:16.054Z,12.71
2023-03-12T15:20:42.766Z,12.80
2023-03-12T15:23:11.565Z,12.77
2023-03-12T15:25:38.330Z,12.88
2023-03-12T15:28:04.599Z,12.89
2023-03-12T15:30:31.735Z,12.88
2023-03-12T15:33:11.751Z,12.94
2023-03-12T15:35:58.106Z,12.90
2023-03-12T15:38:25.150Z,12.90
2023-03-12T15:40:54.812Z,12.92
2023-03-12T15:43:23.495Z,12.89
2023-03-12T15:46:00.016Z,12.87
2023-03-12T15:48:30.902Z,12.83
2023-03-12T15:50:57.755Z,12.84
2023-03-12T15:53:30.806Z,12.76
2023-03-12T15:56:26.224Z,12.75
2023-03-12T15:59:05.758Z,12.68
2023-03-12T16:01:50.417Z,12.62
2023-03-12T16:04:17.428Z,12.69
2023-03-12T16:06:48.141Z,12.67
2023-03-12T16:09:19.975Z,12.68
2023-03-12T16:11:47.048Z,12.69
2023-03-12T16:14:24.738Z,12.72
2023-03-12T16:16:53.969Z,12.74
2023-03-12T16:19:22.865Z,12.65
2023-03-12T16:21:49.940Z,12.62
2023-03-12T16:24:16.993Z,12.58
2023-03-12T16:26:49.286Z,12.55
2023-03-12T16:29:18.007Z,12.68
2023-03-12T16:31:44.775Z,12.66
2023-03-12T16:34:12.223Z,12.62
2023-03-12T16:36:39.001Z,12.52
2023-03-12T16:39:05.264Z,12.57
2023-03-12T16:41:32.416Z,12.54
2023-03-12T16:43:59.364Z,12.52
2023-03-12T16:46:30.931Z,12.54
2023-03-12T16:48:57.901Z,12.50
2023-03-12T16:51:24.595Z,12.46
2023-03-12T16:54:01.984Z,12.45
2023-03-12T16:56:35.864Z,12.44
2023-03-12T16:59:06.891Z,12.47
2023-03-12T17:01:33.308Z,12.42
2023-03-12T17:04:00.000Z,12.43
2023-03-12T17:06:27.085Z,12.39
2023-03-12T17:08:54.302Z,12.40
2023-03-12T17:11:23.874Z,12.38
2023-03-12T17:13:57.618Z,12.34
2023-03-12T17:16:24.944Z,12.37
2023-03-12T17:18:51.487Z,12.34
2023-03-12T17:21:19.430Z,12.32
2023-03-12T17:23:47.630Z,12.33
2023-03-12T17:26:14.948Z,12.31
2023-03-12T17:28:41.330Z,12.29
2023-03-12T17:31:08.471Z,12.27
2023-03-12T17:33:34.882Z,12.19
2023-03-12T17:36:03.942Z,12.26
2023-03-12T17:38:31.006Z,12.13
2023-03-12T17:40:59.035Z,12.24
2023-03-12T17:43:25.775Z,12.18
2023-03-12T17:45:52.129Z,12.22
2023-03-12T17:48:19.128Z,12.17
2023-03-12T17:50:45.538Z,12.09
2023-03-12T17:53:13.377Z,12.08
2023-03-12T17:55:40.206Z,12.14
2023-03-12T17:58:06.527Z,12.14
2023-03-12T18:00:33.530Z,12.18
2023-03-12T18:03:00.173Z,12.13
2023-03-12T18:05:26.591Z,12.09
2023-03-12T18:07:53.533Z,12.04
2023-03-12T18:10:20.025Z,12.04
2023-03-12T18:12:46.356Z,12.02
2023-03-12T18:15:13.871Z,12.04
2023-03-12T18:17:41.336Z,11.98
2023-03-12T18:20:16.569Z,11.98
2023-03-12T18:22:46.074Z,12.00
2023-03-12T18:25:12.527Z,11.96
2023-03-12T18:27:38.988Z,11.99
2023-03-12T18:30:08.174Z,12.02
2023-03-12T18:32:37.474Z,12.01
2023-03-12T18:35:04.544Z,11.95
2023-03-12T18:37:31.949Z,11.90
2023-03-12T18:39:58.397Z,11.89
2023-03-12T18:42:24.697Z,11.87
2023-03-12T18:44:51.163Z,11.95
2023-03-12T18:47:18.523Z,11.96
2023-03-12T18:49:45.147Z,11.90
2023-03-12T18:52:11.588Z,11.83
2023-03-12T18:54:39.164Z,11.86
2023-03-12T18:57:05.547Z,11.92
2023-03-12T18:59:32.478Z,11.84
2023-03-12T19:01:59.032Z,11.82
2023-03-12T19:04:25.747Z,11.85
2023-03-12T19:06:52.192Z,11.81
2023-03-12T19:09:19.271Z,11.79
2023-03-12T19:11:50.118Z,11.74
2023-03-12T19:14:16.500Z,11.66
2023-03-12T19:16:43.070Z,11.65
2023-03-12T19:19:09.527Z,11.68
2023-03-12T19:21:35.858Z,11.65
2023-03-12T19:24:02.216Z,11.60
2023-03-12T19:26:28.521Z,11.64
2023-03-12T19:28:55.044Z,11.63
2023-03-12T19:31:21.412Z,11.60
2023-03-12T19:33:47.798Z,11.61
2023-03-12T19:36:17.168Z,11.64
2023-03-12T19:38:43.544Z,11.65
2023-03-12T19:41:10.123Z,11.70
2023-03-12T19:43:40.133Z,11.60
2023-03-12T19:46:09.760Z,11.61
2023-03-12T19:48:38.411Z,11.61
2023-03-12T19:51:09.958Z,11.66
2023-03-12T19:53:36.688Z,11.66
2023-03-12T19:56:06.367Z,11.63
2023-03-12T19:58:33.021Z,11.65
2023-03-12T20:01:00.914Z,11.66
2023-03-12T20:03:28.390Z,11.59
2023-03-12T20:05:55.003Z,11.58
2023-03-12T20:08:23.622Z,11.55
2023-03-12T20:10:50.120Z,11.53
2023-03-12T20:13:17.581Z,11.37
2023-03-12T20:15:48.380Z,11.44
2023-03-12T20:18:15.763Z,11.49
2023-03-12T20:20:44.578Z,11.45
2023-03-12T20:23:11.059Z,11.44
2023-03-12T20:25:41.046Z,11.44
2023-03-12T20:28:08.668Z,11.23
2023-03-12T20:30:35.991Z,11.40
2023-03-12T20:33:02.350Z,11.32
2023-03-12T20:35:28.829Z,11.35
2023-03-12T20:37:55.217Z,11.31
2023-03-12T20:40:24.213Z,11.22
2023-03-12T20:42:50.513Z,11.10
2023-03-12T20:45:19.161Z,11.31
2023-03-12T20:47:50.222Z,11.26
2023-03-12T20:50:26.934Z,11.05
2023-03-12T20:52:56.374Z,11.27
2023-03-12T20:55:22.915Z,11.14
2023-03-12T20:57:49.280Z,11.19
2023-03-12T21:00:15.963Z,11.14
2023-03-12T21:02:42.370Z,11.13
2023-03-12T21:05:11.255Z,11.05
2023-03-12T21:07:37.835Z,11.06
2023-03-12T21:10:04.579Z,11.07
2023-03-12T21:12:30.919Z,11.12
2023-03-12T21:15:05.980Z,11.06
2023-03-12T21:17:37.060Z,11.04
2023-03-12T21:20:09.699Z,11.07
2023-03-12T21:22:36.491Z,11.16
2023-03-12T21:25:03.881Z,11.13
2023-03-12T21:27:38.301Z,11.13
2023-03-12T21:30:11.707Z,11.16
2023-03-12T21:32:38.110Z,11.19
2023-03-12T21:35:05.398Z,11.19
2023-03-12T21:37:31.809Z,11.09
2023-03-12T21:40:01.368Z,11.02
2023-03-12T21:42:28.463Z,11.13
2023-03-12T21:44:55.062Z,11.10
2023-03-12T21:47:21.845Z,11.07
2023-03-12T21:49:48.231Z,11.11
2023-03-12T21:52:14.589Z,10.90
2023-03-12T21:54:40.949Z,11.14
2023-03-12T21:57:07.274Z,11.10
2023-03-12T21:59:33.658Z,11.15
2023-03-12T22:02:00.166Z,11.17
2023-03-12T22:04:26.692Z,11.14
2023-03-12T22:06:53.107Z,11.15
2023-03-12T22:09:19.468Z,11.18
2023-03-12T22:11:45.766Z,11.17
2023-03-12T22:14:12.233Z,11.11
2023-03-12T22:16:38.596Z,11.16
2023-03-12T22:19:04.919Z,11.24
2023-03-12T22:21:31.230Z,11.20
2023-03-12T22:23:57.614Z,11.27
2023-03-12T22:26:25.075Z,11.30
2023-03-12T22:28:57.214Z,11.20
2023-03-12T22:31:26.341Z,11.21
2023-03-12T22:33:52.945Z,11.23
2023-03-12T22:36:20.108Z,11.26
2023-03-12T22:38:49.415Z,11.30
2023-03-12T22:41:24.407Z,11.37
2023-03-12T22:43:53.164Z,11.34
2023-03-12T22:46:21.754Z,11.31
2023-03-12T22:48:52.892Z,11.33
2023-03-12T22:51:19.257Z,11.30
2023-03-12T22:53:45.576Z,11.31
2023-03-12T22:56:13.475Z,11.36
2023-03-12T22:58:40.214Z,11.33
2023-03-12T23:01:09.603Z,11.32
2023-03-12T23:03:37.947Z,11.32
2023-03-12T23:06:09.439Z,11.37
2023-03-12T23:08:35.877Z,11.38
2023-03-12T23:11:03.721Z,11.36
2023-03-12T23:13:32.651Z,11.40
2023-03-12T23:16:08.019Z,11.40
2023-03-12T23:18:35.200Z,11.40
2023-03-12T23:21:04.966Z,11.44
2023-03-12T23:23:31.711Z,11.48
2023-03-12T23:26:00.190Z,11.47
2023-03-12T23:28:28.159Z,11.49
2023-03-12T23:31:01.142Z,11.48
2023-03-12T23:33:28.347Z,11.53
2023-03-12T23:36:00.495Z,11.49
2023-03-12T23:38:28.994Z,11.47
2023-03-12T23:41:04.155Z,11.43
2023-03-12T23:43:30.524Z,11.49
2023-03-12T23:45:58.421Z,11.50
2023-03-12T23:48:26.433Z,11.41
2023-03-12T23:50:52.832Z,11.44
2023-03-12T23:53:19.398Z,11.36
2023-03-12T23:55:59.979Z,11.42
2023-03-12T23:58:26.829Z,11.41
